BSC4002 VMMC-VOHS
Flight info
| Callsign | BSC4002 |
|---|---|
| Flight time | N/A |
| Altitude | 36100 |
| Route | BIGRO R200 LH R339 BSE A599 LXI W148 XSJ W146 GULOT A599 LINSO/N0497F380 A599 CTG B465 CEA Q11 SURUP W41 ANBAS VITUR8 |
| Aircraft | B742/H-SDFHIRWXY/L |
Departure
| Time | 2026-05-04 08:46 |
|---|---|
| Airport | Macau International Airport (VMMC) |
Arrival
| Time | N/A |
|---|---|
| Airport | Rajiv Gandhi International Airport (VOHS) |
| Time | Latitude | Longitude | Altitude | Speed | Heading |
|---|---|---|---|---|---|
| 2026-05-04 08:46 | 22.34858 | 113.57109 | 4293 ft | 267 kts | 275° |
| 2026-05-04 08:46 | 22.35014 | 113.55139 | 4892 ft | 264 kts | 274° |
| 2026-05-04 08:46 | 22.35121 | 113.53192 | 5515 ft | 260 kts | 273° |
| 2026-05-04 08:46 | 22.35203 | 113.51229 | 6018 ft | 261 kts | 272° |
| 2026-05-04 08:47 | 22.35273 | 113.49289 | 6565 ft | 260 kts | 272° |
| 2026-05-04 08:47 | 22.35339 | 113.47329 | 7063 ft | 261 kts | 272° |
| 2026-05-04 08:47 | 22.35404 | 113.45367 | 7539 ft | 263 kts | 272° |
| 2026-05-04 08:47 | 22.35468 | 113.43406 | 7991 ft | 264 kts | 271° |
| 2026-05-04 08:48 | 22.35180 | 113.41452 | 8402 ft | 267 kts | 246° |
| 2026-05-04 08:48 | 22.34012 | 113.39907 | 8851 ft | 271 kts | 220° |
| 2026-05-04 08:48 | 22.32484 | 113.38750 | 9370 ft | 271 kts | 218° |
| 2026-05-04 08:48 | 22.30926 | 113.37592 | 9816 ft | 273 kts | 219° |
| 2026-05-04 08:49 | 22.29367 | 113.36396 | 10195 ft | 278 kts | 220° |
| 2026-05-04 08:50 | 22.18544 | 113.27894 | 11412 ft | 355 kts | 219° |
| 2026-05-04 08:50 | 22.16530 | 113.26308 | 12073 ft | 353 kts | 219° |
| 2026-05-04 08:51 | 22.14609 | 113.24672 | 12640 ft | 351 kts | 227° |
| 2026-05-04 08:51 | 22.13141 | 113.22591 | 13123 ft | 351 kts | 242° |
| 2026-05-04 08:51 | 22.12071 | 113.20231 | 13645 ft | 352 kts | 246° |
| 2026-05-04 08:51 | 22.11105 | 113.17824 | 14124 ft | 355 kts | 247° |
| 2026-05-04 08:52 | 22.10121 | 113.15363 | 14573 ft | 359 kts | 247° |
| 2026-05-04 08:52 | 22.09115 | 113.12884 | 14995 ft | 363 kts | 247° |
| 2026-05-04 08:52 | 22.08089 | 113.10388 | 15455 ft | 365 kts | 247° |
| 2026-05-04 08:52 | 22.07058 | 113.07896 | 15839 ft | 370 kts | 247° |
| 2026-05-04 08:53 | 22.06001 | 113.05349 | 16260 ft | 373 kts | 247° |
| 2026-05-04 08:54 | 21.99814 | 112.89961 | 18670 ft | 390 kts | 249° |
| 2026-05-04 08:55 | 21.99202 | 112.88400 | 18882 ft | 392 kts | 249° |
| 2026-05-04 08:55 | 21.98578 | 112.86815 | 19114 ft | 394 kts | 248° |
| 2026-05-04 08:55 | 21.97512 | 112.84113 | 19538 ft | 395 kts | 249° |
| 2026-05-04 08:55 | 21.96438 | 112.81390 | 19922 ft | 398 kts | 248° |
| 2026-05-04 08:57 | 21.88662 | 112.61736 | 22424 ft | 415 kts | 248° |
| 2026-05-04 09:01 | 21.72383 | 112.20966 | 26769 ft | 435 kts | 248° |
| 2026-05-04 09:01 | 21.71185 | 112.17978 | 27022 ft | 436 kts | 248° |
| 2026-05-04 09:01 | 21.69978 | 112.14967 | 27263 ft | 438 kts | 248° |
| 2026-05-04 09:01 | 21.68775 | 112.11964 | 27487 ft | 440 kts | 248° |
| 2026-05-04 09:02 | 21.67557 | 112.08925 | 27717 ft | 441 kts | 247° |
| 2026-05-04 09:02 | 21.66351 | 112.05919 | 27999 ft | 441 kts | 248° |
| 2026-05-04 09:02 | 21.65136 | 112.02890 | 28208 ft | 443 kts | 247° |
| 2026-05-04 09:02 | 21.63917 | 111.99857 | 28423 ft | 444 kts | 247° |
| 2026-05-04 09:03 | 21.62689 | 111.96800 | 28686 ft | 444 kts | 247° |
| 2026-05-04 09:03 | 21.61465 | 111.93754 | 28879 ft | 446 kts | 247° |
| 2026-05-04 09:03 | 21.60226 | 111.90674 | 29033 ft | 448 kts | 247° |
| 2026-05-04 09:03 | 21.58997 | 111.87618 | 29229 ft | 449 kts | 247° |
| 2026-05-04 09:04 | 21.57754 | 111.84533 | 29439 ft | 450 kts | 247° |
| 2026-05-04 09:04 | 21.56582 | 111.81397 | 29569 ft | 451 kts | 251° |
| 2026-05-04 09:04 | 21.55615 | 111.78203 | 29743 ft | 452 kts | 253° |
| 2026-05-04 09:04 | 21.54718 | 111.74993 | 29920 ft | 453 kts | 253° |
| 2026-05-04 09:05 | 21.53820 | 111.71737 | 30090 ft | 454 kts | 253° |
| 2026-05-04 09:05 | 21.52912 | 111.68476 | 30226 ft | 455 kts | 253° |
| 2026-05-04 09:05 | 21.52006 | 111.65256 | 30410 ft | 455 kts | 253° |
| 2026-05-04 09:05 | 21.51084 | 111.62007 | 30575 ft | 456 kts | 253° |
| 2026-05-04 09:06 | 21.50156 | 111.58757 | 30746 ft | 457 kts | 253° |
| 2026-05-04 09:07 | 21.43577 | 111.35905 | 32067 ft | 456 kts | 253° |
| 2026-05-04 09:08 | 21.42629 | 111.32639 | 32201 ft | 457 kts | 253° |
| 2026-05-04 09:08 | 21.41679 | 111.29408 | 32420 ft | 456 kts | 253° |
| 2026-05-04 09:08 | 21.40729 | 111.26174 | 32677 ft | 454 kts | 253° |
| 2026-05-04 09:08 | 21.39787 | 111.22956 | 32877 ft | 454 kts | 253° |
| 2026-05-04 09:09 | 21.38844 | 111.19722 | 33163 ft | 453 kts | 253° |
| 2026-05-04 09:09 | 21.37913 | 111.16522 | 33382 ft | 452 kts | 253° |
| 2026-05-04 09:09 | 21.36975 | 111.13296 | 33592 ft | 452 kts | 253° |
| 2026-05-04 09:09 | 21.36038 | 111.10074 | 33796 ft | 452 kts | 253° |
| 2026-05-04 09:10 | 21.35110 | 111.06883 | 33946 ft | 453 kts | 253° |
| 2026-05-04 09:10 | 21.34174 | 111.03665 | 34146 ft | 452 kts | 253° |
| 2026-05-04 09:10 | 21.33236 | 111.00446 | 34373 ft | 451 kts | 253° |
| 2026-05-04 09:10 | 21.32297 | 110.97222 | 34600 ft | 450 kts | 254° |
| 2026-05-04 09:11 | 21.31364 | 110.94023 | 34725 ft | 450 kts | 254° |
| 2026-05-04 09:11 | 21.30436 | 110.90843 | 34874 ft | 450 kts | 254° |
| 2026-05-04 09:11 | 21.29495 | 110.87621 | 35038 ft | 450 kts | 254° |
| 2026-05-04 09:11 | 21.28567 | 110.84448 | 35249 ft | 449 kts | 254° |
| 2026-05-04 09:12 | 21.27636 | 110.81267 | 35362 ft | 449 kts | 254° |
| 2026-05-04 09:12 | 21.26708 | 110.78097 | 35516 ft | 449 kts | 254° |
| 2026-05-04 09:14 | 21.20147 | 110.55754 | 36066 ft | 450 kts | 254° |
| 2026-05-04 09:14 | 21.18260 | 110.49352 | 36066 ft | 452 kts | 254° |
| 2026-05-04 09:15 | 21.16374 | 110.42959 | 36068 ft | 454 kts | 254° |
| 2026-05-04 09:15 | 21.14707 | 110.36428 | 36067 ft | 453 kts | 265° |
| 2026-05-04 09:15 | 21.14700 | 110.33091 | 36067 ft | 453 kts | 276° |
| 2026-05-04 09:17 | 21.25872 | 110.08806 | 36069 ft | 456 kts | 296° |
| 2026-05-04 09:18 | 21.28879 | 110.02847 | 36069 ft | 457 kts | 295° |
| 2026-05-04 09:18 | 21.31896 | 109.96847 | 36069 ft | 456 kts | 295° |
| 2026-05-04 09:19 | 21.34882 | 109.90899 | 36066 ft | 454 kts | 295° |
| 2026-05-04 09:19 | 21.37886 | 109.84909 | 36066 ft | 455 kts | 295° |
| 2026-05-04 09:20 | 21.40874 | 109.78944 | 36068 ft | 456 kts | 296° |
| 2026-05-04 09:20 | 21.43878 | 109.72939 | 36066 ft | 455 kts | 296° |
| 2026-05-04 09:21 | 21.46869 | 109.66954 | 36068 ft | 456 kts | 296° |
| 2026-05-04 09:21 | 21.49871 | 109.60941 | 36067 ft | 457 kts | 296° |
| 2026-05-04 09:22 | 21.52857 | 109.54954 | 36065 ft | 456 kts | 296° |
| 2026-05-04 09:22 | 21.55855 | 109.48936 | 36068 ft | 454 kts | 296° |
| 2026-05-04 09:23 | 21.58894 | 109.43029 | 36061 ft | 456 kts | 302° |
| 2026-05-04 09:23 | 21.62865 | 109.37672 | 36069 ft | 461 kts | 307° |
| 2026-05-04 09:25 | 21.79414 | 109.16640 | 36068 ft | 460 kts | 306° |
| 2026-05-04 09:26 | 21.83505 | 109.11390 | 36069 ft | 460 kts | 306° |
| 2026-05-04 09:26 | 21.87617 | 109.06126 | 36069 ft | 459 kts | 307° |
| 2026-05-04 09:27 | 21.91740 | 109.00867 | 36071 ft | 460 kts | 307° |
| 2026-05-04 09:27 | 21.95872 | 108.95590 | 36071 ft | 458 kts | 307° |
| 2026-05-04 09:28 | 21.99971 | 108.90350 | 36070 ft | 458 kts | 307° |
| 2026-05-04 09:28 | 22.04077 | 108.85094 | 36073 ft | 459 kts | 307° |
| 2026-05-04 09:29 | 22.08180 | 108.79836 | 36077 ft | 459 kts | 306° |
| 2026-05-04 09:29 | 22.12297 | 108.74556 | 36076 ft | 458 kts | 307° |
| 2026-05-04 09:30 | 22.16417 | 108.69289 | 36077 ft | 458 kts | 307° |
| 2026-05-04 09:30 | 22.20521 | 108.64043 | 36076 ft | 458 kts | 307° |
| 2026-05-04 09:31 | 22.24622 | 108.58798 | 36074 ft | 457 kts | 307° |
| 2026-05-04 09:31 | 22.28720 | 108.53551 | 36073 ft | 457 kts | 307° |
| 2026-05-04 09:32 | 22.32796 | 108.48324 | 36072 ft | 458 kts | 307° |
| 2026-05-04 09:34 | 22.49132 | 108.27274 | 36077 ft | 457 kts | 306° |
| 2026-05-04 09:34 | 22.53198 | 108.22014 | 36080 ft | 456 kts | 306° |
| 2026-05-04 09:35 | 22.57277 | 108.16749 | 36080 ft | 456 kts | 306° |
| 2026-05-04 09:35 | 22.61508 | 108.11587 | 36080 ft | 457 kts | 309° |
| 2026-05-04 09:37 | 22.79051 | 107.91674 | 36070 ft | 457 kts | 309° |
| 2026-05-04 09:38 | 22.83427 | 107.86661 | 36063 ft | 457 kts | 309° |
| 2026-05-04 09:38 | 22.87786 | 107.81661 | 36066 ft | 456 kts | 309° |
| 2026-05-04 09:39 | 22.92131 | 107.76674 | 36060 ft | 456 kts | 309° |
| 2026-05-04 09:39 | 22.96487 | 107.71667 | 36064 ft | 456 kts | 309° |
| 2026-05-04 09:40 | 23.00849 | 107.66651 | 36073 ft | 456 kts | 309° |
| 2026-05-04 09:40 | 23.05199 | 107.61644 | 36087 ft | 456 kts | 309° |
| 2026-05-04 09:42 | 23.22647 | 107.41518 | 36097 ft | 456 kts | 309° |
| 2026-05-04 09:43 | 23.26967 | 107.36525 | 36100 ft | 456 kts | 309° |
| 2026-05-04 09:43 | 23.31306 | 107.31483 | 36106 ft | 455 kts | 309° |
| 2026-05-04 09:44 | 23.35663 | 107.26393 | 36110 ft | 455 kts | 309° |
| 2026-05-04 09:46 | 23.52934 | 107.06316 | 36115 ft | 455 kts | 309° |
| 2026-05-04 09:46 | 23.57261 | 107.01277 | 36107 ft | 454 kts | 309° |
| 2026-05-04 09:47 | 23.61558 | 106.96269 | 36108 ft | 453 kts | 309° |
| 2026-05-04 09:49 | 23.78813 | 106.76106 | 36091 ft | 452 kts | 309° |
| 2026-05-04 09:51 | 23.92780 | 106.57804 | 36123 ft | 444 kts | 288° |
| 2026-05-04 09:51 | 23.94314 | 106.51269 | 36125 ft | 444 kts | 282° |
| 2026-05-04 09:52 | 23.95585 | 106.44675 | 36123 ft | 444 kts | 282° |
| 2026-05-04 09:52 | 23.96877 | 106.38106 | 36125 ft | 444 kts | 282° |
| 2026-05-04 09:53 | 23.98190 | 106.31514 | 36131 ft | 445 kts | 282° |
| 2026-05-04 09:53 | 23.99504 | 106.24844 | 36125 ft | 446 kts | 282° |
| 2026-05-04 09:54 | 24.00821 | 106.18245 | 36123 ft | 445 kts | 282° |
| 2026-05-04 09:54 | 24.02146 | 106.11634 | 36124 ft | 445 kts | 282° |
| 2026-05-04 09:55 | 24.03470 | 106.05032 | 36126 ft | 446 kts | 282° |
| 2026-05-04 09:55 | 24.04793 | 105.98418 | 36134 ft | 446 kts | 282° |
| 2026-05-04 09:56 | 24.06111 | 105.91817 | 36145 ft | 445 kts | 282° |
| 2026-05-04 09:56 | 24.07421 | 105.85236 | 36163 ft | 444 kts | 282° |
| 2026-05-04 09:57 | 24.08731 | 105.78647 | 36178 ft | 445 kts | 282° |
| 2026-05-04 09:57 | 24.10020 | 105.72140 | 36187 ft | 445 kts | 282° |
| 2026-05-04 09:58 | 24.11506 | 105.65444 | 36187 ft | 445 kts | 284° |
| 2026-05-04 09:58 | 24.13144 | 105.58881 | 36184 ft | 446 kts | 285° |
| 2026-05-04 10:00 | 24.19539 | 105.32745 | 36210 ft | 446 kts | 284° |
| 2026-05-04 10:04 | 24.29944 | 104.86614 | 36236 ft | 447 kts | 283° |
| 2026-05-04 10:04 | 24.31394 | 104.80034 | 36244 ft | 445 kts | 283° |
| 2026-05-04 10:05 | 24.32844 | 104.73441 | 36248 ft | 445 kts | 283° |
| 2026-05-04 10:05 | 24.34293 | 104.66839 | 36256 ft | 447 kts | 283° |
| 2026-05-04 10:06 | 24.35739 | 104.60232 | 36265 ft | 446 kts | 283° |
| 2026-05-04 10:06 | 24.37179 | 104.53639 | 36266 ft | 446 kts | 283° |
| 2026-05-04 10:08 | 24.42204 | 104.30452 | 36290 ft | 448 kts | 283° |
| 2026-05-04 10:08 | 24.43615 | 104.23796 | 36291 ft | 447 kts | 283° |
| 2026-05-04 10:09 | 24.45033 | 104.17175 | 36300 ft | 447 kts | 283° |
| 2026-05-04 10:09 | 24.46458 | 104.10541 | 36302 ft | 448 kts | 283° |
| 2026-05-04 10:10 | 24.47893 | 104.03855 | 36314 ft | 448 kts | 283° |
| 2026-05-04 10:10 | 24.49311 | 103.97240 | 36323 ft | 448 kts | 283° |
| 2026-05-04 10:11 | 24.50732 | 103.90592 | 36325 ft | 446 kts | 283° |
| 2026-05-04 10:11 | 24.52135 | 103.84022 | 36330 ft | 445 kts | 283° |
| 2026-05-04 10:12 | 24.53544 | 103.77401 | 36336 ft | 447 kts | 283° |
| 2026-05-04 10:12 | 24.54377 | 103.70624 | 36335 ft | 449 kts | 273° |
| 2026-05-04 10:13 | 24.54498 | 103.63797 | 36335 ft | 449 kts | 272° |
| 2026-05-04 10:13 | 24.54591 | 103.56955 | 36334 ft | 447 kts | 272° |
| 2026-05-04 10:14 | 24.54714 | 103.50120 | 36338 ft | 447 kts | 272° |
| 2026-05-04 10:16 | 24.55204 | 103.22861 | 36341 ft | 450 kts | 272° |
| 2026-05-04 10:16 | 24.56034 | 103.16107 | 36344 ft | 446 kts | 287° |
| 2026-05-04 10:17 | 24.58162 | 103.09719 | 36349 ft | 448 kts | 290° |
| 2026-05-04 10:19 | 24.66963 | 102.84154 | 36354 ft | 447 kts | 289° |
| 2026-05-04 10:19 | 24.68237 | 102.77512 | 36352 ft | 448 kts | 272° |
| 2026-05-04 10:20 | 24.67915 | 102.70677 | 36350 ft | 451 kts | 267° |
| 2026-05-04 10:20 | 24.67404 | 102.63788 | 36353 ft | 449 kts | 267° |
| 2026-05-04 10:21 | 24.66938 | 102.56964 | 36359 ft | 448 kts | 268° |
| 2026-05-04 10:21 | 24.66614 | 102.50150 | 36365 ft | 449 kts | 269° |
| 2026-05-04 10:22 | 24.66196 | 102.39829 | 36353 ft | 450 kts | 269° |
| 2026-05-04 10:23 | 24.65905 | 102.33015 | 36345 ft | 448 kts | 269° |